sensor_id;sensor_type;location;lat;lon;timestamp;P1;durP1;ratioP1;P2;durP2;ratioP2
2906;SDS011;1463;51.070;16.998;2023-07-24T00:00:55;12.33;;;4.03;;
2906;SDS011;1463;51.070;16.998;2023-07-24T00:03:23;6.72;;;3.08;;
2906;SDS011;1463;51.070;16.998;2023-07-24T00:05:52;5.77;;;2.93;;
2906;SDS011;1463;51.070;16.998;2023-07-24T00:08:19;8.03;;;3.63;;
2906;SDS011;1463;51.070;16.998;2023-07-24T00:10:46;7.23;;;3.13;;
2906;SDS011;1463;51.070;16.998;2023-07-24T00:13:14;7.10;;;3.47;;
2906;SDS011;1463;51.070;16.998;2023-07-24T00:15:41;6.73;;;3.10;;
2906;SDS011;1463;51.070;16.998;2023-07-24T00:18:09;8.00;;;4.07;;
2906;SDS011;1463;51.070;16.998;2023-07-24T00:20:37;5.13;;;3.27;;
2906;SDS011;1463;51.070;16.998;2023-07-24T00:23:06;7.50;;;4.00;;
2906;SDS011;1463;51.070;16.998;2023-07-24T00:25:33;10.60;;;4.13;;
2906;SDS011;1463;51.070;16.998;2023-07-24T00:28:01;7.07;;;3.60;;
2906;SDS011;1463;51.070;16.998;2023-07-24T00:30:28;9.90;;;3.80;;
2906;SDS011;1463;51.070;16.998;2023-07-24T00:32:56;5.37;;;3.27;;
2906;SDS011;1463;51.070;16.998;2023-07-24T00:35:23;9.02;;;4.18;;
2906;SDS011;1463;51.070;16.998;2023-07-24T00:37:52;9.23;;;3.37;;
2906;SDS011;1463;51.070;16.998;2023-07-24T00:40:20;10.00;;;3.90;;
2906;SDS011;1463;51.070;16.998;2023-07-24T00:42:48;7.27;;;4.53;;
2906;SDS011;1463;51.070;16.998;2023-07-24T00:45:16;8.27;;;3.10;;
2906;SDS011;1463;51.070;16.998;2023-07-24T00:47:43;8.10;;;3.40;;
2906;SDS011;1463;51.070;16.998;2023-07-24T00:50:11;8.35;;;3.63;;
2906;SDS011;1463;51.070;16.998;2023-07-24T00:52:40;10.33;;;3.77;;
2906;SDS011;1463;51.070;16.998;2023-07-24T00:55:08;10.53;;;4.13;;
2906;SDS011;1463;51.070;16.998;2023-07-24T00:57:38;12.13;;;3.63;;
2906;SDS011;1463;51.070;16.998;2023-07-24T01:00:07;7.30;;;3.60;;
2906;SDS011;1463;51.070;16.998;2023-07-24T01:02:36;8.73;;;4.20;;
2906;SDS011;1463;51.070;16.998;2023-07-24T01:05:06;11.03;;;3.60;;
2906;SDS011;1463;51.070;16.998;2023-07-24T01:07:35;12.53;;;3.60;;
2906;SDS011;1463;51.070;16.998;2023-07-24T01:10:03;11.27;;;4.10;;
2906;SDS011;1463;51.070;16.998;2023-07-24T01:12:33;11.77;;;4.17;;
2906;SDS011;1463;51.070;16.998;2023-07-24T01:15:08;8.15;;;3.60;;
2906;SDS011;1463;51.070;16.998;2023-07-24T01:17:41;7.25;;;3.53;;
2906;SDS011;1463;51.070;16.998;2023-07-24T01:20:12;9.60;;;3.57;;
2906;SDS011;1463;51.070;16.998;2023-07-24T01:22:46;7.73;;;3.50;;
2906;SDS011;1463;51.070;16.998;2023-07-24T01:25:27;12.20;;;4.20;;
2906;SDS011;1463;51.070;16.998;2023-07-24T01:28:05;8.57;;;4.03;;
2906;SDS011;1463;51.070;16.998;2023-07-24T01:30:34;8.27;;;4.18;;
2906;SDS011;1463;51.070;16.998;2023-07-24T01:33:01;10.63;;;4.07;;
2906;SDS011;1463;51.070;16.998;2023-07-24T01:35:29;9.20;;;3.87;;
2906;SDS011;1463;51.070;16.998;2023-07-24T01:37:58;7.37;;;4.10;;
2906;SDS011;1463;51.070;16.998;2023-07-24T01:40:28;5.53;;;3.77;;
2906;SDS011;1463;51.070;16.998;2023-07-24T01:42:56;12.00;;;3.67;;
2906;SDS011;1463;51.070;16.998;2023-07-24T01:45:26;11.73;;;4.20;;
2906;SDS011;1463;51.070;16.998;2023-07-24T01:47:53;8.07;;;3.80;;
2906;SDS011;1463;51.070;16.998;2023-07-24T01:50:21;12.30;;;4.20;;
2906;SDS011;1463;51.070;16.998;2023-07-24T01:52:48;12.63;;;3.90;;
2906;SDS011;1463;51.070;16.998;2023-07-24T01:55:15;8.50;;;3.80;;
2906;SDS011;1463;51.070;16.998;2023-07-24T01:57:43;11.43;;;4.00;;
2906;SDS011;1463;51.070;16.998;2023-07-24T02:00:11;8.10;;;4.00;;
2906;SDS011;1463;51.070;16.998;2023-07-24T02:02:40;8.07;;;4.17;;
2906;SDS011;1463;51.070;16.998;2023-07-24T02:05:08;9.20;;;4.67;;
2906;SDS011;1463;51.070;16.998;2023-07-24T02:07:35;6.20;;;3.47;;
2906;SDS011;1463;51.070;16.998;2023-07-24T02:10:03;9.80;;;4.10;;
2906;SDS011;1463;51.070;16.998;2023-07-24T02:12:31;8.57;;;4.80;;
2906;SDS011;1463;51.070;16.998;2023-07-24T02:14:59;8.83;;;3.97;;
2906;SDS011;1463;51.070;16.998;2023-07-24T02:17:26;9.93;;;4.27;;
2906;SDS011;1463;51.070;16.998;2023-07-24T02:19:55;12.37;;;4.17;;
2906;SDS011;1463;51.070;16.998;2023-07-24T02:22:22;8.35;;;3.22;;
2906;SDS011;1463;51.070;16.998;2023-07-24T02:24:50;10.93;;;3.77;;
2906;SDS011;1463;51.070;16.998;2023-07-24T02:27:24;6.60;;;3.90;;
2906;SDS011;1463;51.070;16.998;2023-07-24T02:29:52;7.07;;;3.43;;
2906;SDS011;1463;51.070;16.998;2023-07-24T02:32:20;6.83;;;3.33;;
2906;SDS011;1463;51.070;16.998;2023-07-24T02:34:48;9.00;;;4.33;;
2906;SDS011;1463;51.070;16.998;2023-07-24T02:37:18;9.67;;;3.60;;
2906;SDS011;1463;51.070;16.998;2023-07-24T02:39:45;6.33;;;3.10;;
2906;SDS011;1463;51.070;16.998;2023-07-24T02:42:13;6.07;;;4.07;;
2906;SDS011;1463;51.070;16.998;2023-07-24T02:44:40;5.83;;;3.90;;
2906;SDS011;1463;51.070;16.998;2023-07-24T02:47:08;7.87;;;3.93;;
2906;SDS011;1463;51.070;16.998;2023-07-24T02:49:35;8.53;;;3.87;;
2906;SDS011;1463;51.070;16.998;2023-07-24T02:52:03;6.93;;;3.87;;
2906;SDS011;1463;51.070;16.998;2023-07-24T02:54:32;6.90;;;3.57;;
2906;SDS011;1463;51.070;16.998;2023-07-24T02:57:00;8.60;;;3.83;;
2906;SDS011;1463;51.070;16.998;2023-07-24T02:59:28;8.30;;;4.23;;
2906;SDS011;1463;51.070;16.998;2023-07-24T03:01:57;5.53;;;3.08;;
2906;SDS011;1463;51.070;16.998;2023-07-24T03:04:25;7.93;;;4.10;;
2906;SDS011;1463;51.070;16.998;2023-07-24T03:06:52;9.27;;;3.70;;
2906;SDS011;1463;51.070;16.998;2023-07-24T03:09:20;6.40;;;3.93;;
2906;SDS011;1463;51.070;16.998;2023-07-24T03:11:48;8.43;;;4.10;;
2906;SDS011;1463;51.070;16.998;2023-07-24T03:14:16;6.60;;;3.70;;
2906;SDS011;1463;51.070;16.998;2023-07-24T03:16:43;5.70;;;4.13;;
2906;SDS011;1463;51.070;16.998;2023-07-24T03:19:10;6.33;;;3.80;;
2906;SDS011;1463;51.070;16.998;2023-07-24T03:21:38;9.33;;;4.13;;
2906;SDS011;1463;51.070;16.998;2023-07-24T03:24:05;7.57;;;4.25;;
2906;SDS011;1463;51.070;16.998;2023-07-24T03:26:33;8.00;;;3.33;;
2906;SDS011;1463;51.070;16.998;2023-07-24T03:29:02;7.87;;;4.10;;
2906;SDS011;1463;51.070;16.998;2023-07-24T03:31:30;6.20;;;3.53;;
2906;SDS011;1463;51.070;16.998;2023-07-24T03:33:57;16.20;;;4.50;;
2906;SDS011;1463;51.070;16.998;2023-07-24T03:36:25;9.00;;;4.50;;
2906;SDS011;1463;51.070;16.998;2023-07-24T03:38:52;5.70;;;3.03;;
2906;SDS011;1463;51.070;16.998;2023-07-24T03:41:19;5.53;;;3.80;;
2906;SDS011;1463;51.070;16.998;2023-07-24T03:43:47;5.87;;;3.80;;
2906;SDS011;1463;51.070;16.998;2023-07-24T03:46:16;9.43;;;4.07;;
2906;SDS011;1463;51.070;16.998;2023-07-24T03:48:43;9.33;;;4.03;;
2906;SDS011;1463;51.070;16.998;2023-07-24T03:51:10;10.13;;;3.97;;
2906;SDS011;1463;51.070;16.998;2023-07-24T03:53:38;14.13;;;4.13;;
2906;SDS011;1463;51.070;16.998;2023-07-24T03:56:05;7.30;;;3.60;;
2906;SDS011;1463;51.070;16.998;2023-07-24T03:58:32;8.40;;;3.57;;
2906;SDS011;1463;51.070;16.998;2023-07-24T04:01:00;9.63;;;3.93;;
2906;SDS011;1463;51.070;16.998;2023-07-24T04:03:29;6.87;;;3.30;;
2906;SDS011;1463;51.070;16.998;2023-07-24T04:05:56;5.93;;;3.77;;
2906;SDS011;1463;51.070;16.998;2023-07-24T04:08:24;7.00;;;4.60;;
2906;SDS011;1463;51.070;16.998;2023-07-24T04:10:51;4.60;;;3.70;;
2906;SDS011;1463;51.070;16.998;2023-07-24T04:13:21;9.77;;;3.90;;
2906;SDS011;1463;51.070;16.998;2023-07-24T04:15:48;7.87;;;3.50;;
2906;SDS011;1463;51.070;16.998;2023-07-24T04:18:16;8.27;;;4.00;;
2906;SDS011;1463;51.070;16.998;2023-07-24T04:20:45;8.03;;;3.90;;
2906;SDS011;1463;51.070;16.998;2023-07-24T04:23:12;9.20;;;4.27;;
2906;SDS011;1463;51.070;16.998;2023-07-24T04:25:40;5.73;;;3.93;;
2906;SDS011;1463;51.070;16.998;2023-07-24T04:28:07;6.57;;;3.90;;
2906;SDS011;1463;51.070;16.998;2023-07-24T04:30:35;8.77;;;3.78;;
2906;SDS011;1463;51.070;16.998;2023-07-24T04:33:03;5.87;;;3.63;;
2906;SDS011;1463;51.070;16.998;2023-07-24T04:35:30;5.67;;;3.83;;
2906;SDS011;1463;51.070;16.998;2023-07-24T04:38:00;6.13;;;3.60;;
2906;SDS011;1463;51.070;16.998;2023-07-24T04:40:28;6.83;;;3.73;;
2906;SDS011;1463;51.070;16.998;2023-07-24T04:42:55;7.53;;;4.30;;
2906;SDS011;1463;51.070;16.998;2023-07-24T04:45:23;13.23;;;4.65;;
2906;SDS011;1463;51.070;16.998;2023-07-24T04:47:50;6.87;;;4.20;;
2906;SDS011;1463;51.070;16.998;2023-07-24T04:50:18;4.80;;;3.20;;
2906;SDS011;1463;51.070;16.998;2023-07-24T04:52:46;11.30;;;4.30;;
2906;SDS011;1463;51.070;16.998;2023-07-24T04:55:15;7.97;;;4.70;;
2906;SDS011;1463;51.070;16.998;2023-07-24T04:57:42;6.25;;;3.90;;
2906;SDS011;1463;51.070;16.998;2023-07-24T05:00:10;10.10;;;4.30;;
2906;SDS011;1463;51.070;16.998;2023-07-24T05:02:38;5.90;;;4.23;;
2906;SDS011;1463;51.070;16.998;2023-07-24T05:05:06;6.23;;;3.77;;
2906;SDS011;1463;51.070;16.998;2023-07-24T05:07:35;9.90;;;4.67;;
2906;SDS011;1463;51.070;16.998;2023-07-24T05:10:02;6.37;;;4.10;;
2906;SDS011;1463;51.070;16.998;2023-07-24T05:12:32;6.43;;;3.90;;
2906;SDS011;1463;51.070;16.998;2023-07-24T05:14:59;9.80;;;4.25;;
2906;SDS011;1463;51.070;16.998;2023-07-24T05:17:27;7.72;;;4.35;;
2906;SDS011;1463;51.070;16.998;2023-07-24T05:19:55;5.82;;;4.13;;
2906;SDS011;1463;51.070;16.998;2023-07-24T05:22:22;7.10;;;4.43;;
2906;SDS011;1463;51.070;16.998;2023-07-24T05:24:50;7.53;;;4.83;;
2906;SDS011;1463;51.070;16.998;2023-07-24T05:27:17;9.90;;;3.73;;
2906;SDS011;1463;51.070;16.998;2023-07-24T05:29:46;6.50;;;4.20;;
2906;SDS011;1463;51.070;16.998;2023-07-24T05:32:14;8.10;;;4.70;;
2906;SDS011;1463;51.070;16.998;2023-07-24T05:34:41;6.07;;;3.97;;
2906;SDS011;1463;51.070;16.998;2023-07-24T05:37:09;7.77;;;4.77;;
2906;SDS011;1463;51.070;16.998;2023-07-24T05:39:36;5.57;;;3.93;;
2906;SDS011;1463;51.070;16.998;2023-07-24T05:42:04;9.33;;;4.30;;
2906;SDS011;1463;51.070;16.998;2023-07-24T05:44:31;8.30;;;4.37;;
2906;SDS011;1463;51.070;16.998;2023-07-24T05:47:02;9.97;;;4.90;;
2906;SDS011;1463;51.070;16.998;2023-07-24T05:49:30;12.30;;;5.30;;
2906;SDS011;1463;51.070;16.998;2023-07-24T05:51:57;6.20;;;3.87;;
2906;SDS011;1463;51.070;16.998;2023-07-24T05:54:25;8.73;;;3.70;;
2906;SDS011;1463;51.070;16.998;2023-07-24T05:56:52;8.00;;;5.03;;
2906;SDS011;1463;51.070;16.998;2023-07-24T05:59:20;13.00;;;5.47;;
2906;SDS011;1463;51.070;16.998;2023-07-24T06:01:47;7.90;;;4.80;;
2906;SDS011;1463;51.070;16.998;2023-07-24T06:04:16;19.33;;;4.63;;
2906;SDS011;1463;51.070;16.998;2023-07-24T06:06:44;6.80;;;4.03;;
2906;SDS011;1463;51.070;16.998;2023-07-24T06:09:11;18.83;;;4.80;;
2906;SDS011;1463;51.070;16.998;2023-07-24T06:11:39;7.90;;;4.47;;
2906;SDS011;1463;51.070;16.998;2023-07-24T06:14:06;9.00;;;3.95;;
2906;SDS011;1463;51.070;16.998;2023-07-24T06:16:34;6.50;;;4.10;;
2906;SDS011;1463;51.070;16.998;2023-07-24T06:19:01;9.18;;;3.80;;
2906;SDS011;1463;51.070;16.998;2023-07-24T06:21:30;10.30;;;3.90;;
2906;SDS011;1463;51.070;16.998;2023-07-24T06:23:58;11.87;;;4.23;;
2906;SDS011;1463;51.070;16.998;2023-07-24T06:26:25;6.33;;;4.30;;
2906;SDS011;1463;51.070;16.998;2023-07-24T06:28:53;8.37;;;4.90;;
2906;SDS011;1463;51.070;16.998;2023-07-24T06:31:20;7.67;;;4.50;;
2906;SDS011;1463;51.070;16.998;2023-07-24T06:33:48;9.87;;;5.13;;
2906;SDS011;1463;51.070;16.998;2023-07-24T06:36:15;7.00;;;4.87;;
2906;SDS011;1463;51.070;16.998;2023-07-24T06:38:44;5.40;;;3.87;;
2906;SDS011;1463;51.070;16.998;2023-07-24T06:41:12;5.80;;;3.70;;
2906;SDS011;1463;51.070;16.998;2023-07-24T06:43:41;8.10;;;4.67;;
2906;SDS011;1463;51.070;16.998;2023-07-24T06:46:09;8.37;;;4.47;;
2906;SDS011;1463;51.070;16.998;2023-07-24T06:48:36;7.37;;;4.47;;
2906;SDS011;1463;51.070;16.998;2023-07-24T06:51:03;7.60;;;4.60;;
2906;SDS011;1463;51.070;16.998;2023-07-24T06:53:31;6.17;;;4.50;;
2906;SDS011;1463;51.070;16.998;2023-07-24T06:56:00;6.53;;;4.10;;
2906;SDS011;1463;51.070;16.998;2023-07-24T06:58:27;6.20;;;4.27;;
2906;SDS011;1463;51.070;16.998;2023-07-24T07:00:55;9.38;;;4.43;;
2906;SDS011;1463;51.070;16.998;2023-07-24T07:03:22;8.50;;;4.73;;
2906;SDS011;1463;51.070;16.998;2023-07-24T07:05:50;11.30;;;4.53;;
2906;SDS011;1463;51.070;16.998;2023-07-24T07:08:17;7.60;;;4.60;;
2906;SDS011;1463;51.070;16.998;2023-07-24T07:10:45;7.23;;;4.73;;
2906;SDS011;1463;51.070;16.998;2023-07-24T07:13:14;5.10;;;3.80;;
2906;SDS011;1463;51.070;16.998;2023-07-24T07:15:42;7.23;;;3.73;;
2906;SDS011;1463;51.070;16.998;2023-07-24T07:18:09;5.17;;;3.70;;
2906;SDS011;1463;51.070;16.998;2023-07-24T07:20:36;8.83;;;4.20;;
2906;SDS011;1463;51.070;16.998;2023-07-24T07:23:04;5.82;;;4.05;;
2906;SDS011;1463;51.070;16.998;2023-07-24T07:25:31;8.60;;;3.90;;
2906;SDS011;1463;51.070;16.998;2023-07-24T07:27:59;6.57;;;3.70;;
2906;SDS011;1463;51.070;16.998;2023-07-24T07:30:28;7.83;;;3.67;;
2906;SDS011;1463;51.070;16.998;2023-07-24T07:32:55;5.73;;;4.17;;
2906;SDS011;1463;51.070;16.998;2023-07-24T07:35:22;5.23;;;3.80;;
2906;SDS011;1463;51.070;16.998;2023-07-24T07:37:50;4.93;;;3.67;;
2906;SDS011;1463;51.070;16.998;2023-07-24T07:40:17;5.43;;;3.58;;
2906;SDS011;1463;51.070;16.998;2023-07-24T07:42:45;7.30;;;3.70;;
2906;SDS011;1463;51.070;16.998;2023-07-24T07:45:12;6.80;;;3.50;;
2906;SDS011;1463;51.070;16.998;2023-07-24T07:47:41;7.57;;;4.00;;
2906;SDS011;1463;51.070;16.998;2023-07-24T07:50:09;6.93;;;3.97;;
2906;SDS011;1463;51.070;16.998;2023-07-24T07:52:36;5.93;;;4.00;;
2906;SDS011;1463;51.070;16.998;2023-07-24T07:55:04;7.40;;;4.47;;
2906;SDS011;1463;51.070;16.998;2023-07-24T07:57:34;7.43;;;4.47;;
2906;SDS011;1463;51.070;16.998;2023-07-24T08:00:02;6.70;;;4.10;;
2906;SDS011;1463;51.070;16.998;2023-07-24T08:02:31;5.78;;;4.30;;
2906;SDS011;1463;51.070;16.998;2023-07-24T08:05:00;7.60;;;5.00;;
2906;SDS011;1463;51.070;16.998;2023-07-24T08:07:28;7.60;;;5.10;;
2906;SDS011;1463;51.070;16.998;2023-07-24T08:09:57;7.60;;;4.40;;
2906;SDS011;1463;51.070;16.998;2023-07-24T08:12:24;8.03;;;4.77;;
2906;SDS011;1463;51.070;16.998;2023-07-24T08:14:52;7.33;;;4.43;;
2906;SDS011;1463;51.070;16.998;2023-07-24T08:17:19;6.93;;;4.30;;
2906;SDS011;1463;51.070;16.998;2023-07-24T08:19:47;7.32;;;4.80;;
2906;SDS011;1463;51.070;16.998;2023-07-24T08:22:16;5.43;;;3.97;;
2906;SDS011;1463;51.070;16.998;2023-07-24T08:24:46;6.57;;;4.43;;
2906;SDS011;1463;51.070;16.998;2023-07-24T08:27:15;8.50;;;5.00;;
2906;SDS011;1463;51.070;16.998;2023-07-24T08:29:43;6.20;;;4.70;;
2906;SDS011;1463;51.070;16.998;2023-07-24T08:32:10;8.67;;;5.47;;
2906;SDS011;1463;51.070;16.998;2023-07-24T08:34:38;7.70;;;5.07;;
2906;SDS011;1463;51.070;16.998;2023-07-24T08:37:05;6.93;;;4.00;;
2906;SDS011;1463;51.070;16.998;2023-07-24T08:39:34;7.00;;;4.85;;
2906;SDS011;1463;51.070;16.998;2023-07-24T08:42:07;9.10;;;5.10;;
2906;SDS011;1463;51.070;16.998;2023-07-24T08:44:36;7.13;;;5.03;;
2906;SDS011;1463;51.070;16.998;2023-07-24T08:47:04;6.17;;;4.67;;
2906;SDS011;1463;51.070;16.998;2023-07-24T08:49:36;9.63;;;4.57;;
2906;SDS011;1463;51.070;16.998;2023-07-24T08:52:06;9.40;;;4.63;;
2906;SDS011;1463;51.070;16.998;2023-07-24T08:54:36;7.27;;;4.63;;
2906;SDS011;1463;51.070;16.998;2023-07-24T08:57:06;8.13;;;4.50;;
2906;SDS011;1463;51.070;16.998;2023-07-24T08:59:34;7.57;;;5.10;;
2906;SDS011;1463;51.070;16.998;2023-07-24T09:02:01;7.50;;;5.00;;
2906;SDS011;1463;51.070;16.998;2023-07-24T09:04:29;6.87;;;4.60;;
2906;SDS011;1463;51.070;16.998;2023-07-24T09:06:57;8.77;;;4.77;;
2906;SDS011;1463;51.070;16.998;2023-07-24T09:09:28;7.17;;;5.20;;
2906;SDS011;1463;51.070;16.998;2023-07-24T09:11:58;5.43;;;4.53;;
2906;SDS011;1463;51.070;16.998;2023-07-24T09:14:26;7.67;;;5.00;;
2906;SDS011;1463;51.070;16.998;2023-07-24T09:17:02;8.73;;;4.93;;
2906;SDS011;1463;51.070;16.998;2023-07-24T09:19:31;5.83;;;4.90;;
2906;SDS011;1463;51.070;16.998;2023-07-24T09:22:08;11.43;;;5.20;;
2906;SDS011;1463;51.070;16.998;2023-07-24T09:24:36;6.43;;;5.37;;
2906;SDS011;1463;51.070;16.998;2023-07-24T09:27:06;6.70;;;5.60;;
2906;SDS011;1463;51.070;16.998;2023-07-24T09:29:35;6.30;;;5.00;;
2906;SDS011;1463;51.070;16.998;2023-07-24T09:32:02;6.25;;;4.85;;
2906;SDS011;1463;51.070;16.998;2023-07-24T09:34:31;6.50;;;4.63;;
2906;SDS011;1463;51.070;16.998;2023-07-24T09:36:59;7.00;;;4.80;;
2906;SDS011;1463;51.070;16.998;2023-07-24T09:39:27;8.35;;;5.22;;
2906;SDS011;1463;51.070;16.998;2023-07-24T09:42:02;9.83;;;4.50;;
2906;SDS011;1463;51.070;16.998;2023-07-24T09:44:31;7.45;;;4.03;;
2906;SDS011;1463;51.070;16.998;2023-07-24T09:46:59;7.73;;;5.20;;
2906;SDS011;1463;51.070;16.998;2023-07-24T09:49:28;9.50;;;4.57;;
2906;SDS011;1463;51.070;16.998;2023-07-24T09:51:55;7.20;;;4.50;;
2906;SDS011;1463;51.070;16.998;2023-07-24T09:54:32;7.27;;;4.67;;
2906;SDS011;1463;51.070;16.998;2023-07-24T09:57:10;7.30;;;4.23;;
2906;SDS011;1463;51.070;16.998;2023-07-24T09:59:41;5.07;;;3.93;;
2906;SDS011;1463;51.070;16.998;2023-07-24T10:02:09;5.10;;;4.00;;
2906;SDS011;1463;51.070;16.998;2023-07-24T10:04:38;6.03;;;4.90;;
2906;SDS011;1463;51.070;16.998;2023-07-24T10:07:07;8.50;;;5.00;;
2906;SDS011;1463;51.070;16.998;2023-07-24T10:09:36;7.40;;;4.47;;
2906;SDS011;1463;51.070;16.998;2023-07-24T10:12:05;7.03;;;4.77;;
2906;SDS011;1463;51.070;16.998;2023-07-24T10:14:33;7.50;;;4.80;;
2906;SDS011;1463;51.070;16.998;2023-07-24T10:17:04;6.20;;;4.70;;
2906;SDS011;1463;51.070;16.998;2023-07-24T10:19:35;6.47;;;4.90;;
2906;SDS011;1463;51.070;16.998;2023-07-24T10:22:04;10.53;;;4.60;;
2906;SDS011;1463;51.070;16.998;2023-07-24T10:24:32;10.73;;;4.80;;
2906;SDS011;1463;51.070;16.998;2023-07-24T10:27:00;9.30;;;5.10;;
2906;SDS011;1463;51.070;16.998;2023-07-24T10:29:33;5.70;;;4.67;;
2906;SDS011;1463;51.070;16.998;2023-07-24T10:32:04;6.13;;;4.57;;
2906;SDS011;1463;51.070;16.998;2023-07-24T10:34:43;10.80;;;5.13;;
2906;SDS011;1463;51.070;16.998;2023-07-24T10:37:10;7.53;;;5.40;;
2906;SDS011;1463;51.070;16.998;2023-07-24T10:39:38;9.57;;;5.28;;
2906;SDS011;1463;51.070;16.998;2023-07-24T10:42:07;8.97;;;5.43;;
2906;SDS011;1463;51.070;16.998;2023-07-24T10:44:36;10.87;;;5.70;;
2906;SDS011;1463;51.070;16.998;2023-07-24T10:47:05;8.77;;;5.30;;
2906;SDS011;1463;51.070;16.998;2023-07-24T10:49:33;8.60;;;4.67;;
2906;SDS011;1463;51.070;16.998;2023-07-24T10:52:01;7.60;;;5.30;;
2906;SDS011;1463;51.070;16.998;2023-07-24T10:54:29;9.43;;;4.78;;
2906;SDS011;1463;51.070;16.998;2023-07-24T10:56:58;8.67;;;4.87;;
2906;SDS011;1463;51.070;16.998;2023-07-24T10:59:36;8.93;;;5.30;;
2906;SDS011;1463;51.070;16.998;2023-07-24T11:02:06;7.50;;;5.40;;
2906;SDS011;1463;51.070;16.998;2023-07-24T11:04:35;8.45;;;5.20;;
2906;SDS011;1463;51.070;16.998;2023-07-24T11:07:03;7.60;;;5.70;;
2906;SDS011;1463;51.070;16.998;2023-07-24T11:09:36;7.37;;;4.77;;
2906;SDS011;1463;51.070;16.998;2023-07-24T11:12:12;6.80;;;4.70;;
2906;SDS011;1463;51.070;16.998;2023-07-24T11:14:47;10.60;;;5.40;;
2906;SDS011;1463;51.070;16.998;2023-07-24T11:17:17;9.90;;;4.83;;
2906;SDS011;1463;51.070;16.998;2023-07-24T11:19:44;9.67;;;4.50;;
2906;SDS011;1463;51.070;16.998;2023-07-24T11:22:12;6.10;;;4.75;;
2906;SDS011;1463;51.070;16.998;2023-07-24T11:24:42;8.47;;;4.50;;
2906;SDS011;1463;51.070;16.998;2023-07-24T11:27:12;10.50;;;5.53;;
2906;SDS011;1463;51.070;16.998;2023-07-24T11:29:41;7.17;;;5.07;;
2906;SDS011;1463;51.070;16.998;2023-07-24T11:32:09;5.90;;;4.67;;
2906;SDS011;1463;51.070;16.998;2023-07-24T11:34:37;6.40;;;5.20;;
2906;SDS011;1463;51.070;16.998;2023-07-24T11:37:06;8.23;;;5.13;;
2906;SDS011;1463;51.070;16.998;2023-07-24T11:39:33;7.13;;;4.43;;
2906;SDS011;1463;51.070;16.998;2023-07-24T11:42:01;8.23;;;4.80;;
2906;SDS011;1463;51.070;16.998;2023-07-24T11:44:29;9.37;;;5.47;;
2906;SDS011;1463;51.070;16.998;2023-07-24T11:47:02;7.37;;;4.60;;
2906;SDS011;1463;51.070;16.998;2023-07-24T11:49:31;7.23;;;5.10;;
2906;SDS011;1463;51.070;16.998;2023-07-24T11:52:01;8.93;;;5.20;;
2906;SDS011;1463;51.070;16.998;2023-07-24T11:54:30;6.33;;;5.43;;
2906;SDS011;1463;51.070;16.998;2023-07-24T11:56:57;6.90;;;5.20;;
2906;SDS011;1463;51.070;16.998;2023-07-24T11:59:25;8.30;;;5.43;;
2906;SDS011;1463;51.070;16.998;2023-07-24T12:01:52;12.10;;;5.63;;
2906;SDS011;1463;51.070;16.998;2023-07-24T12:04:20;9.07;;;5.57;;
2906;SDS011;1463;51.070;16.998;2023-07-24T12:06:47;7.33;;;5.40;;
2906;SDS011;1463;51.070;16.998;2023-07-24T12:09:17;6.23;;;5.40;;
2906;SDS011;1463;51.070;16.998;2023-07-24T12:11:44;8.37;;;5.70;;
2906;SDS011;1463;51.070;16.998;2023-07-24T12:14:14;11.02;;;6.50;;
2906;SDS011;1463;51.070;16.998;2023-07-24T12:16:41;8.77;;;5.57;;
2906;SDS011;1463;51.070;16.998;2023-07-24T12:19:09;7.93;;;5.70;;
2906;SDS011;1463;51.070;16.998;2023-07-24T12:21:36;7.18;;;6.05;;
2906;SDS011;1463;51.070;16.998;2023-07-24T12:24:05;6.87;;;5.67;;
2906;SDS011;1463;51.070;16.998;2023-07-24T12:26:34;8.70;;;6.07;;
2906;SDS011;1463;51.070;16.998;2023-07-24T12:29:01;7.70;;;5.87;;
2906;SDS011;1463;51.070;16.998;2023-07-24T12:31:29;8.68;;;5.75;;
2906;SDS011;1463;51.070;16.998;2023-07-24T12:33:59;8.40;;;6.80;;
2906;SDS011;1463;51.070;16.998;2023-07-24T12:36:26;12.50;;;6.87;;
2906;SDS011;1463;51.070;16.998;2023-07-24T12:38:54;7.80;;;6.60;;
2906;SDS011;1463;51.070;16.998;2023-07-24T12:41:21;6.97;;;6.00;;
2906;SDS011;1463;51.070;16.998;2023-07-24T12:43:50;7.50;;;6.10;;
2906;SDS011;1463;51.070;16.998;2023-07-24T12:46:18;9.60;;;6.60;;
2906;SDS011;1463;51.070;16.998;2023-07-24T12:48:45;6.43;;;5.60;;
2906;SDS011;1463;51.070;16.998;2023-07-24T12:51:13;7.50;;;6.30;;
2906;SDS011;1463;51.070;16.998;2023-07-24T12:53:40;10.30;;;6.27;;
2906;SDS011;1463;51.070;16.998;2023-07-24T12:56:07;8.60;;;6.65;;
2906;SDS011;1463;51.070;16.998;2023-07-24T12:58:35;9.67;;;6.30;;
2906;SDS011;1463;51.070;16.998;2023-07-24T13:01:04;9.60;;;7.07;;
2906;SDS011;1463;51.070;16.998;2023-07-24T13:03:32;9.87;;;7.43;;
2906;SDS011;1463;51.070;16.998;2023-07-24T13:05:59;8.80;;;6.90;;
2906;SDS011;1463;51.070;16.998;2023-07-24T13:08:27;9.17;;;6.70;;
2906;SDS011;1463;51.070;16.998;2023-07-24T13:10:54;7.47;;;6.10;;
2906;SDS011;1463;51.070;16.998;2023-07-24T13:13:23;7.30;;;5.80;;
2906;SDS011;1463;51.070;16.998;2023-07-24T13:15:53;10.13;;;6.75;;
2906;SDS011;1463;51.070;16.998;2023-07-24T13:18:23;9.20;;;6.20;;
2906;SDS011;1463;51.070;16.998;2023-07-24T13:20:51;8.23;;;6.17;;
2906;SDS011;1463;51.070;16.998;2023-07-24T13:23:18;11.30;;;6.60;;
2906;SDS011;1463;51.070;16.998;2023-07-24T13:25:46;7.97;;;5.73;;
2906;SDS011;1463;51.070;16.998;2023-07-24T13:28:13;7.85;;;6.32;;
2906;SDS011;1463;51.070;16.998;2023-07-24T13:30:41;9.20;;;5.87;;
2906;SDS011;1463;51.070;16.998;2023-07-24T13:33:08;10.27;;;6.00;;
2906;SDS011;1463;51.070;16.998;2023-07-24T13:35:37;9.48;;;5.88;;
2906;SDS011;1463;51.070;16.998;2023-07-24T13:38:05;8.70;;;5.43;;
2906;SDS011;1463;51.070;16.998;2023-07-24T13:40:33;7.97;;;5.87;;
2906;SDS011;1463;51.070;16.998;2023-07-24T13:43:01;8.77;;;6.63;;
2906;SDS011;1463;51.070;16.998;2023-07-24T13:45:30;10.40;;;6.70;;
2906;SDS011;1463;51.070;16.998;2023-07-24T13:47:57;9.23;;;6.00;;
2906;SDS011;1463;51.070;16.998;2023-07-24T13:50:25;7.90;;;5.77;;
2906;SDS011;1463;51.070;16.998;2023-07-24T13:52:54;8.23;;;5.83;;
2906;SDS011;1463;51.070;16.998;2023-07-24T13:55:21;8.40;;;6.13;;
2906;SDS011;1463;51.070;16.998;2023-07-24T13:57:49;9.17;;;6.43;;
2906;SDS011;1463;51.070;16.998;2023-07-24T14:00:17;7.70;;;5.27;;
2906;SDS011;1463;51.070;16.998;2023-07-24T14:02:44;8.68;;;5.88;;
2906;SDS011;1463;51.070;16.998;2023-07-24T14:05:12;8.70;;;6.03;;
2906;SDS011;1463;51.070;16.998;2023-07-24T14:07:39;10.97;;;6.40;;
2906;SDS011;1463;51.070;16.998;2023-07-24T14:10:09;9.23;;;6.60;;
2906;SDS011;1463;51.070;16.998;2023-07-24T14:12:37;8.27;;;6.40;;
2906;SDS011;1463;51.070;16.998;2023-07-24T14:15:05;10.27;;;6.10;;
2906;SDS011;1463;51.070;16.998;2023-07-24T14:17:33;10.50;;;6.03;;
2906;SDS011;1463;51.070;16.998;2023-07-24T14:20:01;9.15;;;6.85;;
2906;SDS011;1463;51.070;16.998;2023-07-24T14:22:29;9.90;;;5.77;;
2906;SDS011;1463;51.070;16.998;2023-07-24T14:24:56;9.23;;;6.17;;
2906;SDS011;1463;51.070;16.998;2023-07-24T14:27:25;10.63;;;6.30;;
2906;SDS011;1463;51.070;16.998;2023-07-24T14:29:53;10.40;;;6.47;;
2906;SDS011;1463;51.070;16.998;2023-07-24T14:32:20;8.53;;;5.83;;
2906;SDS011;1463;51.070;16.998;2023-07-24T14:34:49;9.33;;;5.77;;
2906;SDS011;1463;51.070;16.998;2023-07-24T14:37:18;8.30;;;6.20;;
2906;SDS011;1463;51.070;16.998;2023-07-24T14:39:46;10.17;;;6.47;;
2906;SDS011;1463;51.070;16.998;2023-07-24T14:42:13;7.83;;;6.43;;
2906;SDS011;1463;51.070;16.998;2023-07-24T14:44:42;12.03;;;6.30;;
2906;SDS011;1463;51.070;16.998;2023-07-24T14:47:09;9.50;;;7.03;;
2906;SDS011;1463;51.070;16.998;2023-07-24T14:49:38;11.27;;;6.37;;
2906;SDS011;1463;51.070;16.998;2023-07-24T14:52:06;9.13;;;6.33;;
2906;SDS011;1463;51.070;16.998;2023-07-24T14:54:34;12.60;;;6.10;;
2906;SDS011;1463;51.070;16.998;2023-07-24T14:57:01;7.37;;;5.90;;
2906;SDS011;1463;51.070;16.998;2023-07-24T14:59:29;8.73;;;6.47;;
2906;SDS011;1463;51.070;16.998;2023-07-24T15:01:58;8.97;;;6.13;;
2906;SDS011;1463;51.070;16.998;2023-07-24T15:04:25;11.20;;;6.60;;
2906;SDS011;1463;51.070;16.998;2023-07-24T15:06:53;8.18;;;5.72;;